createdAt,value
2022-10-17T00:00:26.702Z,101993.23
2022-10-17T00:03:19.527Z,101999.36
2022-10-17T00:05:52.257Z,102002.89
2022-10-17T00:08:24.767Z,102006.60
2022-10-17T00:11:02.857Z,101993.11
2022-10-17T00:13:35.756Z,101992.59
2022-10-17T00:16:08.879Z,101994.70
2022-10-17T00:18:42.515Z,102005.41
2022-10-17T00:21:23.296Z,102004.90
2022-10-17T00:23:57.221Z,102005.96
2022-10-17T00:26:33.899Z,102005.09
2022-10-17T00:29:07.190Z,101997.72
2022-10-17T00:31:40.506Z,101982.29
2022-10-17T00:34:13.451Z,101991.04
2022-10-17T00:36:46.200Z,101996.98
2022-10-17T00:39:18.806Z,101992.77
2022-10-17T00:41:56.666Z,101993.30
2022-10-17T00:44:34.934Z,101992.44
2022-10-17T00:47:14.595Z,101992.80
2022-10-17T00:49:47.866Z,101991.42
2022-10-17T00:52:32.574Z,101987.64
2022-10-17T00:55:20.039Z,101993.49
2022-10-17T00:57:55.089Z,101975.48
2022-10-17T01:00:30.927Z,101981.29
2022-10-17T01:03:05.262Z,101990.94
2022-10-17T01:05:39.268Z,101999.73
2022-10-17T01:08:13.381Z,101990.05
2022-10-17T01:11:08.760Z,101988.50
2022-10-17T01:13:50.981Z,102004.45
2022-10-17T01:16:57.764Z,102003.92
2022-10-17T01:19:39.150Z,101994.10
2022-10-17T01:22:26.203Z,102007.60
2022-10-17T01:25:30.999Z,102017.08
2022-10-17T01:31:18.457Z,102016.73
2022-10-17T01:33:54.190Z,102001.30
2022-10-17T01:36:50.629Z,101999.73
2022-10-17T01:39:48.228Z,102010.08
2022-10-17T01:42:40.615Z,101999.20
2022-10-17T01:45:41.566Z,102007.81
2022-10-17T01:48:25.088Z,102004.12
2022-10-17T01:51:10.474Z,102009.57
2022-10-17T01:53:50.019Z,102005.54
2022-10-17T01:56:26.882Z,102009.02
2022-10-17T01:59:05.359Z,102008.15
2022-10-17T02:01:42.617Z,101994.48
2022-10-17T02:04:16.826Z,101995.17
2022-10-17T02:06:49.751Z,102016.41
2022-10-17T02:09:28.108Z,102016.91
2022-10-17T02:12:11.374Z,102011.14
2022-10-17T02:15:04.460Z,102018.14
2022-10-17T02:17:39.112Z,102017.80
2022-10-17T02:20:13.796Z,102008.50
2022-10-17T02:23:13.969Z,102002.20
2022-10-17T02:25:56.191Z,102013.23
2022-10-17T02:28:46.723Z,102005.00
2022-10-17T02:31:26.129Z,102008.86
2022-10-17T02:34:09.154Z,102021.86
2022-10-17T02:36:48.776Z,102025.91
2022-10-17T02:39:25.290Z,102006.96
2022-10-17T02:42:14.409Z,102024.86
2022-10-17T02:44:49.225Z,102011.19
2022-10-17T02:47:35.491Z,102021.88
2022-10-17T02:50:10.241Z,102024.16
2022-10-17T02:53:00.299Z,102019.08
2022-10-17T02:55:39.616Z,102020.48
2022-10-17T02:58:21.368Z,102025.05
2022-10-17T03:00:54.612Z,102015.74
2022-10-17T03:03:31.723Z,102032.58
2022-10-17T03:06:09.638Z,102040.68
2022-10-17T03:08:43.407Z,102041.73
2022-10-17T03:11:16.816Z,102046.83
2022-10-17T03:13:50.524Z,102036.13
2022-10-17T03:16:24.409Z,102050.85
2022-10-17T03:19:01.399Z,102053.84
2022-10-17T03:21:37.262Z,102059.11
2022-10-17T03:24:11.160Z,102056.48
2022-10-17T03:29:21.022Z,102059.10
2022-10-17T03:31:55.155Z,102061.90
2022-10-17T03:34:29.107Z,102065.79
2022-10-17T03:37:02.601Z,102066.30
2022-10-17T03:39:36.647Z,102066.13
2022-10-17T03:42:09.640Z,102068.58
2022-10-17T03:44:51.023Z,102059.98
2022-10-17T03:47:23.200Z,102061.04
2022-10-17T03:49:56.698Z,102067.53
2022-10-17T03:52:30.575Z,102068.60
2022-10-17T03:55:04.552Z,102074.91
2022-10-17T03:57:41.106Z,102072.27
2022-10-17T04:00:19.600Z,102073.85
2022-10-17T04:02:57.986Z,102073.67
2022-10-17T04:05:32.949Z,102070.16
2022-10-17T04:08:07.518Z,102074.03
2022-10-17T04:11:09.208Z,102076.30
2022-10-17T04:13:43.373Z,102070.34
2022-10-17T04:16:18.479Z,102075.25
2022-10-17T04:19:02.223Z,102078.40
2022-10-17T04:21:39.682Z,102072.23
2022-10-17T04:24:14.795Z,102098.20
2022-10-17T04:27:02.805Z,102096.11
2022-10-17T04:29:37.730Z,102089.41
2022-10-17T04:32:17.705Z,102092.39
2022-10-17T04:34:57.042Z,102104.85
2022-10-17T04:37:31.973Z,102109.41
2022-10-17T04:40:05.798Z,102108.70
2022-10-17T04:42:39.044Z,102108.14
2022-10-17T04:45:12.720Z,102097.45
2022-10-17T04:47:46.776Z,102092.20
2022-10-17T04:50:20.244Z,102080.43
2022-10-17T04:53:11.030Z,102090.98
2022-10-17T04:55:44.411Z,102104.17
2022-10-17T04:58:18.135Z,102109.79
2022-10-17T05:00:51.886Z,102109.27
2022-10-17T05:03:34.605Z,102097.33
2022-10-17T05:06:13.607Z,102100.30
2022-10-17T05:08:48.763Z,102104.17
2022-10-17T05:11:30.104Z,102116.99
2022-10-17T05:14:05.808Z,102117.53
2022-10-17T05:16:39.583Z,102120.36
2022-10-17T05:19:14.829Z,102118.23
2022-10-17T05:21:53.286Z,102121.94
2022-10-17T05:24:26.839Z,102104.38
2022-10-17T05:27:03.149Z,102121.95
2022-10-17T05:29:40.230Z,102113.52
2022-10-17T05:32:29.315Z,102129.17
2022-10-17T05:35:04.737Z,102131.98
2022-10-17T05:37:37.870Z,102138.14
2022-10-17T05:40:12.019Z,102145.52
2022-10-17T05:42:55.700Z,102151.48
2022-10-17T05:45:39.372Z,102159.23
2022-10-17T05:48:12.661Z,102147.80
2022-10-17T05:50:45.241Z,102149.56
2022-10-17T05:53:21.731Z,102157.46
2022-10-17T05:56:03.565Z,102166.24
2022-10-17T05:58:49.790Z,102168.69
2022-10-17T06:01:35.051Z,102163.61
2022-10-17T06:04:08.352Z,102169.92
2022-10-17T06:06:42.063Z,102177.29
2022-10-17T06:09:15.461Z,102168.67
2022-10-17T06:11:52.171Z,102177.79
2022-10-17T06:14:26.013Z,102174.27
2022-10-17T06:17:02.891Z,102179.00
2022-10-17T06:19:36.229Z,102184.09
2022-10-17T06:22:09.195Z,102187.77
2022-10-17T06:24:42.904Z,102180.02
2022-10-17T06:27:17.340Z,102183.33
2022-10-17T06:29:51.837Z,102169.78
2022-10-17T06:32:25.574Z,102179.77
2022-10-17T06:34:59.578Z,102179.39
2022-10-17T06:37:38.213Z,102169.86
2022-10-17T06:40:17.779Z,102163.48
2022-10-17T06:42:51.675Z,102174.65
2022-10-17T06:45:48.984Z,102178.47
2022-10-17T06:48:37.490Z,102174.90
2022-10-17T06:51:21.592Z,102180.27
2022-10-17T06:54:00.619Z,102183.20
2022-10-17T06:57:04.350Z,102189.62
2022-10-17T07:00:00.653Z,102177.59
2022-10-17T07:02:44.503Z,102171.20
2022-10-17T07:05:19.760Z,102178.85
2022-10-17T07:07:53.033Z,102175.98
2022-10-17T07:10:25.795Z,102194.01
2022-10-17T07:12:58.509Z,102189.20
2022-10-17T07:15:32.955Z,102187.87
2022-10-17T07:18:06.156Z,102173.40
2022-10-17T07:20:40.733Z,102183.48
2022-10-17T07:23:14.074Z,102177.41
2022-10-17T07:25:47.254Z,102183.98
2022-10-17T07:28:24.438Z,102184.93
2022-10-17T07:30:58.606Z,102182.84
2022-10-17T07:33:31.878Z,102169.73
2022-10-17T07:36:05.787Z,102178.55
2022-10-17T07:38:40.259Z,102179.14
2022-10-17T07:41:19.230Z,102175.98
2022-10-17T07:43:57.812Z,102167.24
2022-10-17T07:46:38.787Z,102172.70
2022-10-17T07:49:12.118Z,102170.92
2022-10-17T07:54:20.019Z,102166.23
2022-10-17T07:56:53.003Z,102173.92
2022-10-17T07:59:25.975Z,102174.07
2022-10-17T08:02:00.032Z,102171.46
2022-10-17T08:04:33.101Z,102174.55
2022-10-17T08:07:18.543Z,102155.06
2022-10-17T08:09:57.220Z,102157.30
2022-10-17T08:12:33.186Z,102172.77
2022-10-17T08:15:06.498Z,102175.32
2022-10-17T08:17:40.234Z,102167.20
2022-10-17T08:20:13.508Z,102160.98
2022-10-17T08:22:53.281Z,102169.62
2022-10-17T08:25:26.331Z,102160.23
2022-10-17T08:27:59.944Z,102159.39
2022-10-17T08:30:32.966Z,102159.59
2022-10-17T08:33:06.148Z,102168.02
2022-10-17T08:35:39.665Z,102168.97
2022-10-17T08:38:13.504Z,102164.19
2022-10-17T08:40:50.731Z,102169.17
2022-10-17T08:43:23.164Z,102163.20
2022-10-17T08:46:04.906Z,102166.66
2022-10-17T08:48:45.628Z,102150.39
2022-10-17T08:51:26.907Z,102169.30
2022-10-17T08:54:12.657Z,102163.48
2022-10-17T08:56:51.311Z,102163.10
2022-10-17T08:59:30.458Z,102170.38
2022-10-17T09:02:29.506Z,102174.15
2022-10-17T09:05:23.897Z,102166.24
2022-10-17T09:08:21.012Z,102173.15
2022-10-17T09:11:00.619Z,102165.44
2022-10-17T09:14:07.952Z,102162.32
2022-10-17T09:17:20.257Z,102165.10
2022-10-17T09:20:22.955Z,102165.41
2022-10-17T09:23:46.437Z,102167.55
2022-10-17T09:26:19.846Z,102163.92
2022-10-17T09:28:59.907Z,102160.80
2022-10-17T09:31:38.772Z,102162.27
2022-10-17T09:34:13.811Z,102163.02
2022-10-17T09:36:46.671Z,102165.36
2022-10-17T09:39:27.077Z,102161.43
2022-10-17T09:42:05.040Z,102163.48
2022-10-17T09:44:44.495Z,102156.67
2022-10-17T09:47:22.830Z,102154.61
2022-10-17T09:49:56.014Z,102153.43
2022-10-17T09:52:42.512Z,102157.73
2022-10-17T09:55:29.132Z,102157.89
2022-10-17T09:58:07.628Z,102154.84
2022-10-17T10:00:48.119Z,102151.91
2022-10-17T10:03:25.424Z,102145.69
2022-10-17T10:06:19.405Z,102150.17
2022-10-17T10:09:06.004Z,102147.33
2022-10-17T10:11:56.233Z,102148.54
2022-10-17T10:14:40.323Z,102143.13
2022-10-17T10:17:58.244Z,102136.59
2022-10-17T10:21:05.513Z,102127.12
2022-10-17T10:23:42.108Z,102121.65
2022-10-17T10:26:28.315Z,102124.73
2022-10-17T10:29:03.670Z,102119.55
2022-10-17T10:31:41.988Z,102126.55
2022-10-17T10:34:36.322Z,102126.39
2022-10-17T10:37:21.546Z,102120.45
2022-10-17T10:40:10.754Z,102119.02
2022-10-17T10:43:01.283Z,102109.08
2022-10-17T10:45:48.429Z,102100.82
2022-10-17T10:48:26.227Z,102111.23
2022-10-17T10:51:22.385Z,102109.97
2022-10-17T10:54:13.335Z,102109.55
2022-10-17T10:56:57.022Z,102120.25
2022-10-17T10:59:50.096Z,102113.51
2022-10-17T11:02:40.840Z,102112.84
2022-10-17T11:05:19.211Z,102112.84
2022-10-17T11:08:20.767Z,102105.32
2022-10-17T11:11:24.543Z,102107.91
2022-10-17T11:14:36.355Z,102113.05
2022-10-17T11:17:20.023Z,102108.10
2022-10-17T11:20:20.324Z,102103.96
2022-10-17T11:22:58.201Z,102099.15
2022-10-17T11:25:51.960Z,102092.27
2022-10-17T11:28:26.990Z,102076.65
2022-10-17T11:31:12.016Z,102066.73
2022-10-17T11:34:00.181Z,102074.31
2022-10-17T11:36:48.194Z,102073.65
2022-10-17T11:39:48.992Z,102070.91
2022-10-17T11:42:28.126Z,102067.23
2022-10-17T11:45:22.701Z,102066.06
2022-10-17T11:48:03.812Z,102068.94
2022-10-17T11:53:42.760Z,102065.42
2022-10-17T11:56:19.252Z,102071.97
2022-10-17T11:59:24.280Z,102065.13
2022-10-17T12:02:07.479Z,102077.70
2022-10-17T12:05:02.994Z,102080.55
2022-10-17T12:08:30.606Z,102080.96
2022-10-17T12:11:39.286Z,102085.40
2022-10-17T12:14:47.234Z,102084.46
2022-10-17T12:17:39.891Z,102077.77
2022-10-17T12:20:28.289Z,102083.37
2022-10-17T12:23:09.468Z,102075.55
2022-10-17T12:26:03.288Z,102073.42
2022-10-17T12:28:50.445Z,102068.06
2022-10-17T12:31:32.506Z,102074.60
2022-10-17T12:34:18.947Z,102071.02
2022-10-17T12:36:51.918Z,102062.73
2022-10-17T12:39:43.930Z,102064.30
2022-10-17T12:42:33.360Z,102051.70
2022-10-17T12:45:44.543Z,102061.67
2022-10-17T12:48:36.395Z,102054.40
2022-10-17T12:54:18.142Z,102055.72
2022-10-17T12:56:52.009Z,102064.03
2022-10-17T12:59:34.885Z,102057.23
2022-10-17T13:02:14.521Z,102053.65
2022-10-17T13:04:47.224Z,102061.20
2022-10-17T13:07:25.365Z,102057.33
2022-10-17T13:09:58.495Z,102047.21
2022-10-17T13:12:31.657Z,102058.78
2022-10-17T13:15:09.172Z,102059.23
2022-10-17T13:17:43.779Z,102057.52
2022-10-17T13:20:30.399Z,102057.61
2022-10-17T13:23:06.016Z,102048.02
2022-10-17T13:25:39.593Z,102053.42
2022-10-17T13:28:15.742Z,102052.19
2022-10-17T13:30:49.967Z,102060.39
2022-10-17T13:33:42.740Z,102063.05
2022-10-17T13:36:20.761Z,102060.54
2022-10-17T13:38:53.675Z,102060.68
2022-10-17T13:41:36.641Z,102047.88
2022-10-17T13:44:26.182Z,102063.31
2022-10-17T13:46:59.005Z,102060.75
2022-10-17T13:49:44.579Z,102061.27
2022-10-17T13:52:23.014Z,102062.53
2022-10-17T13:54:56.429Z,102052.52
2022-10-17T13:57:32.851Z,102057.08
2022-10-17T14:00:19.085Z,102049.06
2022-10-17T14:02:51.726Z,102046.60
2022-10-17T14:05:24.415Z,102047.52
2022-10-17T14:08:11.950Z,102046.13
2022-10-17T14:10:47.168Z,102052.80
2022-10-17T14:13:29.024Z,102050.84
2022-10-17T14:16:04.583Z,102050.11
2022-10-17T14:18:40.911Z,102041.57
2022-10-17T14:21:43.971Z,102046.77
2022-10-17T14:24:26.230Z,102053.63
2022-10-17T14:27:02.536Z,102051.27
2022-10-17T14:29:54.084Z,102051.41
2022-10-17T14:32:26.590Z,102047.48
2022-10-17T14:35:18.808Z,102038.86
2022-10-17T14:37:59.712Z,102041.92
2022-10-17T14:40:33.756Z,102039.42
2022-10-17T14:43:08.148Z,102035.96
2022-10-17T14:45:42.221Z,102028.55
2022-10-17T14:48:18.723Z,102024.81
2022-10-17T14:51:13.117Z,102027.02
2022-10-17T14:54:05.044Z,102032.63
2022-10-17T14:56:43.553Z,102035.04
2022-10-17T14:59:30.125Z,102036.65
2022-10-17T15:02:13.286Z,102018.08
2022-10-17T15:04:46.084Z,102027.71
2022-10-17T15:07:21.413Z,102035.16
2022-10-17T15:09:55.178Z,102029.41
2022-10-17T15:12:29.119Z,102029.10
2022-10-17T15:15:02.039Z,102027.55
2022-10-17T15:17:36.257Z,102031.27
2022-10-17T15:20:19.796Z,102022.79
2022-10-17T15:22:53.057Z,102024.63
2022-10-17T15:25:26.181Z,102042.45
2022-10-17T15:27:59.842Z,102049.64
2022-10-17T15:30:36.339Z,102056.27
2022-10-17T15:33:08.987Z,102062.49
2022-10-17T15:35:43.935Z,102070.49
2022-10-17T15:38:20.121Z,102073.09
2022-10-17T15:40:52.721Z,102058.41
2022-10-17T15:43:25.342Z,102063.70
2022-10-17T15:45:57.887Z,102062.14
2022-10-17T15:48:32.843Z,102071.42
2022-10-17T15:51:05.838Z,102083.11
2022-10-17T15:53:39.320Z,102086.17
2022-10-17T15:56:26.963Z,102080.92
2022-10-17T15:59:00.934Z,102073.83
2022-10-17T16:01:35.455Z,102081.80
2022-10-17T16:04:08.191Z,102076.59
2022-10-17T16:06:40.674Z,102080.08
2022-10-17T16:09:13.548Z,102083.80
2022-10-17T16:11:47.053Z,102084.23
2022-10-17T16:14:19.888Z,102079.54
2022-10-17T16:16:52.254Z,102076.20
2022-10-17T16:19:26.711Z,102081.66
2022-10-17T16:22:04.339Z,102084.13
2022-10-17T16:24:37.055Z,102087.82
2022-10-17T16:27:10.252Z,102091.52
2022-10-17T16:29:43.101Z,102094.10
2022-10-17T16:32:15.594Z,102090.23
2022-10-17T16:34:48.410Z,102104.91
2022-10-17T16:37:21.002Z,102103.60
2022-10-17T16:39:54.036Z,102099.04
2022-10-17T16:42:27.112Z,102105.31
2022-10-17T16:45:00.092Z,102107.51
2022-10-17T16:47:33.284Z,102107.27
2022-10-17T16:50:06.533Z,102110.14
2022-10-17T16:52:39.662Z,102110.61
2022-10-17T16:55:13.028Z,102107.27
2022-10-17T16:57:46.460Z,102112.66
2022-10-17T17:00:26.366Z,102107.77
2022-10-17T17:03:01.316Z,102116.05
2022-10-17T17:05:33.854Z,102117.48
2022-10-17T17:08:09.115Z,102110.20
2022-10-17T17:10:51.565Z,102121.45
2022-10-17T17:13:24.400Z,102116.09
2022-10-17T17:16:08.544Z,102116.39
2022-10-17T17:18:43.131Z,102127.95
2022-10-17T17:21:17.032Z,102119.55
2022-10-17T17:23:49.717Z,102132.63
2022-10-17T17:26:24.839Z,102133.33
2022-10-17T17:29:01.804Z,102138.23
2022-10-17T17:31:36.642Z,102129.73
2022-10-17T17:34:10.302Z,102134.73
2022-10-17T17:36:45.378Z,102140.90
2022-10-17T17:39:19.090Z,102145.71
2022-10-17T17:41:51.879Z,102138.99
2022-10-17T17:44:29.345Z,102140.91
2022-10-17T17:47:02.702Z,102147.70
2022-10-17T17:49:35.918Z,102157.13
2022-10-17T17:52:10.330Z,102136.52
2022-10-17T17:54:43.895Z,102156.22
2022-10-17T17:57:16.724Z,102147.55
2022-10-17T17:59:50.132Z,102158.28
2022-10-17T18:02:22.752Z,102158.88
2022-10-17T18:04:56.788Z,102158.23
2022-10-17T18:07:30.954Z,102158.09
2022-10-17T18:10:09.601Z,102159.20
2022-10-17T18:12:46.240Z,102152.81
2022-10-17T18:15:19.438Z,102133.63
2022-10-17T18:17:52.341Z,102138.86
2022-10-17T18:20:25.489Z,102157.80
2022-10-17T18:23:01.889Z,102145.77
2022-10-17T18:25:39.075Z,102157.77
2022-10-17T18:28:15.669Z,102153.61
2022-10-17T18:30:49.513Z,102144.62
2022-10-17T18:33:23.184Z,102150.98
2022-10-17T18:36:06.952Z,102162.47
2022-10-17T18:38:40.719Z,102145.59
2022-10-17T18:41:16.226Z,102157.05
2022-10-17T18:43:50.394Z,102169.23
2022-10-17T18:46:26.250Z,102175.27
2022-10-17T18:48:59.579Z,102172.17
2022-10-17T18:51:33.622Z,102163.14
2022-10-17T18:54:09.670Z,102164.45
2022-10-17T18:56:42.921Z,102168.27
2022-10-17T18:59:19.479Z,102168.19
2022-10-17T19:01:52.801Z,102170.17
2022-10-17T19:04:26.168Z,102170.38
2022-10-17T19:07:00.134Z,102176.95
2022-10-17T19:09:32.960Z,102172.58
2022-10-17T19:12:06.524Z,102175.12
2022-10-17T19:14:43.228Z,102185.08
2022-10-17T19:17:20.329Z,102186.02
2022-10-17T19:19:53.916Z,102182.89
2022-10-17T19:22:39.178Z,102175.62
2022-10-17T19:25:12.306Z,102189.17
2022-10-17T19:27:45.449Z,102184.48
2022-10-17T19:30:18.962Z,102181.86
2022-10-17T19:32:54.494Z,102166.11
2022-10-17T19:35:28.259Z,102173.22
2022-10-17T19:38:06.838Z,102186.48
2022-10-17T19:40:43.850Z,102188.80
2022-10-17T19:43:16.975Z,102189.02
2022-10-17T19:46:00.331Z,102182.44
2022-10-17T19:48:37.384Z,102188.12
2022-10-17T19:51:13.006Z,102186.56
2022-10-17T19:53:49.889Z,102186.05
2022-10-17T19:56:23.276Z,102187.52
2022-10-17T19:58:57.646Z,102176.48
2022-10-17T20:01:36.201Z,102167.60
2022-10-17T20:04:14.364Z,102178.69
2022-10-17T20:06:47.768Z,102191.89
2022-10-17T20:09:20.370Z,102182.09
2022-10-17T20:11:52.808Z,102193.19
2022-10-17T20:14:25.520Z,102190.77
2022-10-17T20:17:00.525Z,102192.42
2022-10-17T20:19:34.247Z,102190.51
2022-10-17T20:22:06.918Z,102190.89
2022-10-17T20:24:40.238Z,102179.20
2022-10-17T20:27:13.397Z,102181.04
2022-10-17T20:29:48.487Z,102197.27
2022-10-17T20:32:22.232Z,102195.02
2022-10-17T20:35:00.393Z,102198.75
2022-10-17T20:37:42.591Z,102197.22
2022-10-17T20:40:34.021Z,102192.34
2022-10-17T20:43:12.358Z,102195.86
2022-10-17T20:45:52.016Z,102192.86
2022-10-17T20:48:30.075Z,102182.54
2022-10-17T20:51:10.732Z,102190.27
2022-10-17T20:53:49.416Z,102187.31
2022-10-17T20:56:31.712Z,102179.27
2022-10-17T20:59:14.440Z,102179.15
2022-10-17T21:01:56.446Z,102189.70
2022-10-17T21:04:45.918Z,102180.62
2022-10-17T21:07:22.861Z,102188.16
2022-10-17T21:10:00.260Z,102182.93
2022-10-17T21:12:53.080Z,102190.31
2022-10-17T21:15:29.664Z,102177.69
2022-10-17T21:18:02.538Z,102182.08
2022-10-17T21:20:36.140Z,102179.98
2022-10-17T21:23:11.390Z,102177.05
2022-10-17T21:25:48.200Z,102177.63
2022-10-17T21:28:21.438Z,102169.94
2022-10-17T21:31:06.828Z,102170.50
2022-10-17T21:33:40.729Z,102170.05
2022-10-17T21:36:16.901Z,102167.98
2022-10-17T21:38:52.636Z,102168.52
2022-10-17T21:41:34.257Z,102174.72
2022-10-17T21:44:10.077Z,102167.58
2022-10-17T21:46:44.515Z,102176.71
2022-10-17T21:49:24.560Z,102175.51
2022-10-17T21:52:04.706Z,102173.58
2022-10-17T21:54:38.155Z,102172.02
2022-10-17T21:57:10.858Z,102169.22
2022-10-17T21:59:43.401Z,102165.40
2022-10-17T22:02:16.789Z,102168.40
2022-10-17T22:04:49.697Z,102168.42
2022-10-17T22:07:26.531Z,102166.84
2022-10-17T22:10:04.632Z,102166.86
2022-10-17T22:12:37.847Z,102164.95
2022-10-17T22:15:15.836Z,102170.23
2022-10-17T22:17:48.919Z,102159.81
2022-10-17T22:20:21.637Z,102165.52
2022-10-17T22:23:00.378Z,102172.56
2022-10-17T22:25:57.401Z,102173.45
2022-10-17T22:28:31.597Z,102163.80
2022-10-17T22:31:04.330Z,102168.00
2022-10-17T22:33:39.265Z,102157.30
2022-10-17T22:36:16.919Z,102164.52
2022-10-17T22:38:49.944Z,102165.04
2022-10-17T22:41:23.797Z,102164.52
2022-10-17T22:43:57.330Z,102155.41
2022-10-17T22:46:30.997Z,102164.04
2022-10-17T22:49:04.407Z,102148.98
2022-10-17T22:51:42.770Z,102145.29
2022-10-17T22:54:15.962Z,102149.31
2022-10-17T22:56:55.900Z,102160.38
2022-10-17T22:59:30.009Z,102150.02
2022-10-17T23:02:03.913Z,102137.23
2022-10-17T23:04:37.788Z,102142.66
2022-10-17T23:07:15.223Z,102154.59
2022-10-17T23:09:49.819Z,102157.60
2022-10-17T23:12:24.017Z,102152.88
2022-10-17T23:14:57.980Z,102137.79
2022-10-17T23:17:31.134Z,102138.67
2022-10-17T23:20:03.653Z,102149.38
2022-10-17T23:22:44.816Z,102146.39
2022-10-17T23:25:19.221Z,102149.56
2022-10-17T23:27:54.736Z,102146.23
2022-10-17T23:30:28.763Z,102144.13
2022-10-17T23:33:05.861Z,102135.73
2022-10-17T23:35:39.370Z,102122.98
2022-10-17T23:38:12.639Z,102131.05
2022-10-17T23:40:56.266Z,102126.14
2022-10-17T23:43:34.678Z,102124.05
2022-10-17T23:46:08.368Z,102132.17
2022-10-17T23:48:41.157Z,102129.41
2022-10-17T23:51:14.130Z,102121.71
2022-10-17T23:53:52.470Z,102127.99
2022-10-17T23:56:25.879Z,102123.24
2022-10-17T23:58:59.005Z,102115.19
